sensor_id;sensor_type;location;lat;lon;timestamp;P1;durP1;ratioP1;P2;durP2;ratioP2
14007;SDS011;61651;45.508;12.232;2023-04-07T00:01:05;14.10;;;10.47;;
14007;SDS011;61651;45.508;12.232;2023-04-07T00:04:07;16.43;;;11.67;;
14007;SDS011;61651;45.508;12.232;2023-04-07T00:07:09;12.13;;;10.63;;
14007;SDS011;61651;45.508;12.232;2023-04-07T00:10:11;14.97;;;9.57;;
14007;SDS011;61651;45.508;12.232;2023-04-07T00:13:13;15.57;;;10.80;;
14007;SDS011;61651;45.508;12.232;2023-04-07T00:16:16;15.47;;;10.87;;
14007;SDS011;61651;45.508;12.232;2023-04-07T00:19:18;12.37;;;9.50;;
14007;SDS011;61651;45.508;12.232;2023-04-07T00:22:20;14.60;;;10.63;;
14007;SDS011;61651;45.508;12.232;2023-04-07T00:25:22;12.43;;;10.20;;
14007;SDS011;61651;45.508;12.232;2023-04-07T00:28:24;12.47;;;10.43;;
14007;SDS011;61651;45.508;12.232;2023-04-07T00:31:27;14.47;;;10.67;;
14007;SDS011;61651;45.508;12.232;2023-04-07T00:34:29;13.80;;;10.77;;
14007;SDS011;61651;45.508;12.232;2023-04-07T00:37:31;14.07;;;10.70;;
14007;SDS011;61651;45.508;12.232;2023-04-07T00:40:33;13.13;;;10.27;;
14007;SDS011;61651;45.508;12.232;2023-04-07T00:43:35;12.13;;;10.67;;
14007;SDS011;61651;45.508;12.232;2023-04-07T00:46:39;11.30;;;10.17;;
14007;SDS011;61651;45.508;12.232;2023-04-07T00:49:42;13.00;;;11.30;;
14007;SDS011;61651;45.508;12.232;2023-04-07T00:52:44;13.37;;;10.60;;
14007;SDS011;61651;45.508;12.232;2023-04-07T00:55:46;13.00;;;11.63;;
14007;SDS011;61651;45.508;12.232;2023-04-07T00:58:48;12.00;;;10.47;;
14007;SDS011;61651;45.508;12.232;2023-04-07T01:01:54;14.10;;;10.87;;
14007;SDS011;61651;45.508;12.232;2023-04-07T01:05:05;12.90;;;11.13;;
14007;SDS011;61651;45.508;12.232;2023-04-07T01:08:13;12.93;;;10.57;;
14007;SDS011;61651;45.508;12.232;2023-04-07T01:11:19;12.23;;;10.93;;
14007;SDS011;61651;45.508;12.232;2023-04-07T01:14:24;15.80;;;12.40;;
14007;SDS011;61651;45.508;12.232;2023-04-07T01:17:34;16.93;;;12.27;;
14007;SDS011;61651;45.508;12.232;2023-04-07T01:20:38;13.70;;;10.73;;
14007;SDS011;61651;45.508;12.232;2023-04-07T01:23:59;15.60;;;11.97;;
14007;SDS011;61651;45.508;12.232;2023-04-07T01:27:11;15.67;;;11.90;;
14007;SDS011;61651;45.508;12.232;2023-04-07T01:30:20;17.07;;;11.70;;
14007;SDS011;61651;45.508;12.232;2023-04-07T01:33:25;14.03;;;12.13;;
14007;SDS011;61651;45.508;12.232;2023-04-07T01:36:31;12.23;;;10.93;;
14007;SDS011;61651;45.508;12.232;2023-04-07T01:39:34;14.97;;;13.17;;
14007;SDS011;61651;45.508;12.232;2023-04-07T01:42:36;14.00;;;11.87;;
14007;SDS011;61651;45.508;12.232;2023-04-07T01:45:41;13.80;;;12.03;;
14007;SDS011;61651;45.508;12.232;2023-04-07T01:48:44;15.63;;;12.27;;
14007;SDS011;61651;45.508;12.232;2023-04-07T01:51:47;14.00;;;12.43;;
14007;SDS011;61651;45.508;12.232;2023-04-07T01:54:50;14.40;;;12.90;;
14007;SDS011;61651;45.508;12.232;2023-04-07T01:57:53;13.67;;;12.27;;
14007;SDS011;61651;45.508;12.232;2023-04-07T02:00:56;14.93;;;12.53;;
14007;SDS011;61651;45.508;12.232;2023-04-07T02:04:00;14.47;;;12.53;;
14007;SDS011;61651;45.508;12.232;2023-04-07T02:07:07;16.13;;;12.30;;
14007;SDS011;61651;45.508;12.232;2023-04-07T02:10:14;13.97;;;11.87;;
14007;SDS011;61651;45.508;12.232;2023-04-07T02:13:19;12.73;;;11.43;;
14007;SDS011;61651;45.508;12.232;2023-04-07T02:16:22;14.07;;;12.67;;
14007;SDS011;61651;45.508;12.232;2023-04-07T02:19:25;15.30;;;11.90;;
14007;SDS011;61651;45.508;12.232;2023-04-07T02:22:29;14.90;;;13.23;;
14007;SDS011;61651;45.508;12.232;2023-04-07T02:25:32;13.77;;;11.90;;
14007;SDS011;61651;45.508;12.232;2023-04-07T02:28:37;13.20;;;11.87;;
14007;SDS011;61651;45.508;12.232;2023-04-07T02:31:40;15.17;;;12.63;;
14007;SDS011;61651;45.508;12.232;2023-04-07T02:34:42;15.53;;;13.37;;
14007;SDS011;61651;45.508;12.232;2023-04-07T02:37:44;14.80;;;12.23;;
14007;SDS011;61651;45.508;12.232;2023-04-07T02:40:46;15.53;;;12.43;;
14007;SDS011;61651;45.508;12.232;2023-04-07T02:43:48;14.53;;;12.23;;
14007;SDS011;61651;45.508;12.232;2023-04-07T02:46:52;14.13;;;12.57;;
14007;SDS011;61651;45.508;12.232;2023-04-07T02:49:54;15.60;;;12.33;;
14007;SDS011;61651;45.508;12.232;2023-04-07T02:52:55;15.57;;;12.87;;
14007;SDS011;61651;45.508;12.232;2023-04-07T02:55:57;14.63;;;11.80;;
14007;SDS011;61651;45.508;12.232;2023-04-07T02:58:59;16.10;;;12.00;;
14007;SDS011;61651;45.508;12.232;2023-04-07T03:02:03;15.77;;;13.30;;
14007;SDS011;61651;45.508;12.232;2023-04-07T03:05:05;15.13;;;12.50;;
14007;SDS011;61651;45.508;12.232;2023-04-07T03:08:07;16.33;;;12.43;;
14007;SDS011;61651;45.508;12.232;2023-04-07T03:11:09;14.43;;;12.57;;
14007;SDS011;61651;45.508;12.232;2023-04-07T03:14:11;15.10;;;12.47;;
14007;SDS011;61651;45.508;12.232;2023-04-07T03:17:14;13.93;;;12.50;;
14007;SDS011;61651;45.508;12.232;2023-04-07T03:20:16;15.90;;;12.70;;
14007;SDS011;61651;45.508;12.232;2023-04-07T03:23:18;15.30;;;12.63;;
14007;SDS011;61651;45.508;12.232;2023-04-07T03:26:20;15.23;;;13.67;;
14007;SDS011;61651;45.508;12.232;2023-04-07T03:29:22;16.60;;;13.63;;
14007;SDS011;61651;45.508;12.232;2023-04-07T03:32:26;15.03;;;13.23;;
14007;SDS011;61651;45.508;12.232;2023-04-07T03:35:28;13.80;;;12.10;;
14007;SDS011;61651;45.508;12.232;2023-04-07T03:38:30;16.70;;;13.87;;
14007;SDS011;61651;45.508;12.232;2023-04-07T03:41:32;15.47;;;13.77;;
14007;SDS011;61651;45.508;12.232;2023-04-07T03:44:34;19.73;;;14.10;;
14007;SDS011;61651;45.508;12.232;2023-04-07T03:47:38;15.20;;;13.17;;
14007;SDS011;61651;45.508;12.232;2023-04-07T03:50:40;15.37;;;13.13;;
14007;SDS011;61651;45.508;12.232;2023-04-07T03:53:42;16.67;;;13.57;;
14007;SDS011;61651;45.508;12.232;2023-04-07T03:56:44;16.87;;;14.30;;
14007;SDS011;61651;45.508;12.232;2023-04-07T03:59:46;17.93;;;14.43;;
14007;SDS011;61651;45.508;12.232;2023-04-07T04:02:51;15.97;;;14.37;;
14007;SDS011;61651;45.508;12.232;2023-04-07T04:05:53;19.23;;;15.27;;
14007;SDS011;61651;45.508;12.232;2023-04-07T04:08:55;17.87;;;14.63;;
14007;SDS011;61651;45.508;12.232;2023-04-07T04:11:57;15.33;;;13.73;;
14007;SDS011;61651;45.508;12.232;2023-04-07T04:15:00;16.50;;;14.33;;
14007;SDS011;61651;45.508;12.232;2023-04-07T04:18:03;17.97;;;13.10;;
14007;SDS011;61651;45.508;12.232;2023-04-07T04:21:05;21.10;;;14.73;;
14007;SDS011;61651;45.508;12.232;2023-04-07T04:24:08;16.80;;;14.33;;
14007;SDS011;61651;45.508;12.232;2023-04-07T04:27:10;17.20;;;13.63;;
14007;SDS011;61651;45.508;12.232;2023-04-07T04:30:12;18.67;;;14.87;;
14007;SDS011;61651;45.508;12.232;2023-04-07T04:33:16;17.33;;;14.23;;
14007;SDS011;61651;45.508;12.232;2023-04-07T04:36:18;15.67;;;14.07;;
14007;SDS011;61651;45.508;12.232;2023-04-07T04:39:20;22.20;;;14.57;;
14007;SDS011;61651;45.508;12.232;2023-04-07T04:42:22;17.80;;;13.37;;
14007;SDS011;61651;45.508;12.232;2023-04-07T04:45:25;16.93;;;14.33;;
14007;SDS011;61651;45.508;12.232;2023-04-07T04:48:28;16.70;;;14.27;;
14007;SDS011;61651;45.508;12.232;2023-04-07T04:51:30;17.30;;;14.70;;
14007;SDS011;61651;45.508;12.232;2023-04-07T04:54:32;16.43;;;13.80;;
14007;SDS011;61651;45.508;12.232;2023-04-07T04:57:34;16.57;;;14.03;;
14007;SDS011;61651;45.508;12.232;2023-04-07T05:00:36;16.97;;;14.07;;
14007;SDS011;61651;45.508;12.232;2023-04-07T05:03:39;17.43;;;13.97;;
14007;SDS011;61651;45.508;12.232;2023-04-07T05:06:41;19.33;;;14.60;;
14007;SDS011;61651;45.508;12.232;2023-04-07T05:09:43;18.77;;;13.13;;
14007;SDS011;61651;45.508;12.232;2023-04-07T05:12:45;18.20;;;14.17;;
14007;SDS011;61651;45.508;12.232;2023-04-07T05:15:47;17.23;;;13.37;;
14007;SDS011;61651;45.508;12.232;2023-04-07T05:18:50;16.47;;;13.90;;
14007;SDS011;61651;45.508;12.232;2023-04-07T05:21:52;20.23;;;13.43;;
14007;SDS011;61651;45.508;12.232;2023-04-07T05:24:54;17.00;;;13.73;;
14007;SDS011;61651;45.508;12.232;2023-04-07T05:27:57;17.97;;;13.87;;
14007;SDS011;61651;45.508;12.232;2023-04-07T05:30:59;18.37;;;14.30;;
14007;SDS011;61651;45.508;12.232;2023-04-07T05:34:02;17.47;;;14.10;;
14007;SDS011;61651;45.508;12.232;2023-04-07T05:37:04;17.23;;;13.70;;
14007;SDS011;61651;45.508;12.232;2023-04-07T05:40:07;16.63;;;14.33;;
14007;SDS011;61651;45.508;12.232;2023-04-07T05:43:09;16.67;;;13.80;;
14007;SDS011;61651;45.508;12.232;2023-04-07T05:46:11;18.07;;;14.13;;
14007;SDS011;61651;45.508;12.232;2023-04-07T05:49:14;17.13;;;14.00;;
14007;SDS011;61651;45.508;12.232;2023-04-07T05:52:16;22.67;;;13.90;;
14007;SDS011;61651;45.508;12.232;2023-04-07T05:55:18;17.00;;;14.63;;
14007;SDS011;61651;45.508;12.232;2023-04-07T05:58:20;19.37;;;12.83;;
14007;SDS011;61651;45.508;12.232;2023-04-07T06:01:22;20.43;;;14.53;;
14007;SDS011;61651;45.508;12.232;2023-04-07T06:04:25;21.33;;;14.53;;
14007;SDS011;61651;45.508;12.232;2023-04-07T06:07:27;20.07;;;14.03;;
14007;SDS011;61651;45.508;12.232;2023-04-07T06:10:29;19.17;;;15.07;;
14007;SDS011;61651;45.508;12.232;2023-04-07T06:13:31;21.03;;;14.97;;
14007;SDS011;61651;45.508;12.232;2023-04-07T06:16:33;19.23;;;14.53;;
14007;SDS011;61651;45.508;12.232;2023-04-07T06:19:36;17.60;;;14.27;;
14007;SDS011;61651;45.508;12.232;2023-04-07T06:22:38;18.93;;;14.50;;
14007;SDS011;61651;45.508;12.232;2023-04-07T06:25:40;16.73;;;14.37;;
14007;SDS011;61651;45.508;12.232;2023-04-07T06:28:43;17.77;;;13.13;;
14007;SDS011;61651;45.508;12.232;2023-04-07T06:31:45;21.40;;;14.10;;
14007;SDS011;61651;45.508;12.232;2023-04-07T06:34:49;17.00;;;13.47;;
14007;SDS011;61651;45.508;12.232;2023-04-07T06:37:51;18.00;;;13.93;;
14007;SDS011;61651;45.508;12.232;2023-04-07T06:40:53;23.17;;;14.80;;
14007;SDS011;61651;45.508;12.232;2023-04-07T06:43:55;18.83;;;14.20;;
14007;SDS011;61651;45.508;12.232;2023-04-07T06:46:57;17.97;;;14.07;;
14007;SDS011;61651;45.508;12.232;2023-04-07T06:50:00;19.40;;;14.60;;
14007;SDS011;61651;45.508;12.232;2023-04-07T06:53:02;18.67;;;14.53;;
14007;SDS011;61651;45.508;12.232;2023-04-07T06:56:04;16.67;;;14.13;;
14007;SDS011;61651;45.508;12.232;2023-04-07T06:59:07;17.67;;;13.37;;
14007;SDS011;61651;45.508;12.232;2023-04-07T07:02:10;20.53;;;14.67;;
14007;SDS011;61651;45.508;12.232;2023-04-07T07:05:13;19.47;;;14.70;;
14007;SDS011;61651;45.508;12.232;2023-04-07T07:08:16;17.33;;;13.87;;
14007;SDS011;61651;45.508;12.232;2023-04-07T07:11:17;17.13;;;14.07;;
14007;SDS011;61651;45.508;12.232;2023-04-07T07:14:19;20.30;;;15.23;;
14007;SDS011;61651;45.508;12.232;2023-04-07T07:17:21;18.77;;;14.33;;
14007;SDS011;61651;45.508;12.232;2023-04-07T07:20:25;19.13;;;14.70;;
14007;SDS011;61651;45.508;12.232;2023-04-07T07:23:27;16.90;;;14.00;;
14007;SDS011;61651;45.508;12.232;2023-04-07T07:26:29;18.07;;;14.33;;
14007;SDS011;61651;45.508;12.232;2023-04-07T07:29:31;15.27;;;13.63;;
14007;SDS011;61651;45.508;12.232;2023-04-07T07:32:33;19.80;;;14.67;;
14007;SDS011;61651;45.508;12.232;2023-04-07T07:35:36;18.43;;;13.60;;
14007;SDS011;61651;45.508;12.232;2023-04-07T07:38:39;16.20;;;13.40;;
14007;SDS011;61651;45.508;12.232;2023-04-07T07:41:41;19.27;;;14.60;;
14007;SDS011;61651;45.508;12.232;2023-04-07T07:44:43;20.00;;;14.73;;
14007;SDS011;61651;45.508;12.232;2023-04-07T07:47:45;17.00;;;13.83;;
14007;SDS011;61651;45.508;12.232;2023-04-07T07:50:48;16.97;;;13.37;;
14007;SDS011;61651;45.508;12.232;2023-04-07T07:53:51;17.20;;;13.53;;
14007;SDS011;61651;45.508;12.232;2023-04-07T07:56:53;16.13;;;13.77;;
14007;SDS011;61651;45.508;12.232;2023-04-07T07:59:56;16.77;;;14.17;;
14007;SDS011;61651;45.508;12.232;2023-04-07T08:02:58;18.60;;;14.07;;
14007;SDS011;61651;45.508;12.232;2023-04-07T08:06:01;19.80;;;15.50;;
14007;SDS011;61651;45.508;12.232;2023-04-07T08:09:03;18.10;;;14.67;;
14007;SDS011;61651;45.508;12.232;2023-04-07T08:12:06;20.67;;;15.23;;
14007;SDS011;61651;45.508;12.232;2023-04-07T08:15:08;18.93;;;15.23;;
14007;SDS011;61651;45.508;12.232;2023-04-07T08:18:10;19.80;;;14.67;;
14007;SDS011;61651;45.508;12.232;2023-04-07T08:21:13;22.53;;;15.87;;
14007;SDS011;61651;45.508;12.232;2023-04-07T08:24:15;20.27;;;15.27;;
14007;SDS011;61651;45.508;12.232;2023-04-07T08:27:17;21.80;;;14.33;;
14007;SDS011;61651;45.508;12.232;2023-04-07T08:30:20;20.27;;;14.53;;
14007;SDS011;61651;45.508;12.232;2023-04-07T08:33:22;21.40;;;14.93;;
14007;SDS011;61651;45.508;12.232;2023-04-07T08:36:26;19.57;;;14.30;;
14007;SDS011;61651;45.508;12.232;2023-04-07T08:39:29;19.07;;;13.03;;
14007;SDS011;61651;45.508;12.232;2023-04-07T08:42:33;18.92;;;14.43;;
14007;SDS011;61651;45.508;12.232;2023-04-07T08:45:37;19.60;;;14.10;;
14007;SDS011;61651;45.508;12.232;2023-04-07T08:48:41;22.23;;;14.27;;
14007;SDS011;61651;45.508;12.232;2023-04-07T08:51:46;18.77;;;14.77;;
14007;SDS011;61651;45.508;12.232;2023-04-07T08:54:49;21.03;;;13.87;;
14007;SDS011;61651;45.508;12.232;2023-04-07T08:57:52;22.27;;;13.80;;
14007;SDS011;61651;45.508;12.232;2023-04-07T09:00:55;16.23;;;12.97;;
14007;SDS011;61651;45.508;12.232;2023-04-07T09:03:57;15.47;;;12.63;;
14007;SDS011;61651;45.508;12.232;2023-04-07T09:07:01;17.08;;;13.63;;
14007;SDS011;61651;45.508;12.232;2023-04-07T09:10:04;18.07;;;13.47;;
14007;SDS011;61651;45.508;12.232;2023-04-07T09:13:07;16.83;;;12.38;;
14007;SDS011;61651;45.508;12.232;2023-04-07T09:16:09;16.25;;;12.43;;
14007;SDS011;61651;45.508;12.232;2023-04-07T09:19:13;15.97;;;11.83;;
14007;SDS011;61651;45.508;12.232;2023-04-07T09:22:18;16.70;;;13.63;;
14007;SDS011;61651;45.508;12.232;2023-04-07T09:25:35;17.58;;;13.18;;
14007;SDS011;61651;45.508;12.232;2023-04-07T09:28:37;16.67;;;12.63;;
14007;SDS011;61651;45.508;12.232;2023-04-07T09:31:43;15.48;;;12.18;;
14007;SDS011;61651;45.508;12.232;2023-04-07T09:34:46;19.40;;;13.27;;
14007;SDS011;61651;45.508;12.232;2023-04-07T09:38:04;16.35;;;10.95;;
14007;SDS011;61651;45.508;12.232;2023-04-07T09:41:08;18.90;;;11.63;;
14007;SDS011;61651;45.508;12.232;2023-04-07T09:44:11;16.63;;;11.52;;
14007;SDS011;61651;45.508;12.232;2023-04-07T09:47:13;14.63;;;11.10;;
14007;SDS011;61651;45.508;12.232;2023-04-07T09:50:15;14.80;;;11.15;;
14007;SDS011;61651;45.508;12.232;2023-04-07T09:53:41;14.18;;;10.50;;
14007;SDS011;61651;45.508;12.232;2023-04-07T09:56:45;16.48;;;11.15;;
14007;SDS011;61651;45.508;12.232;2023-04-07T09:59:47;21.17;;;12.90;;
14007;SDS011;61651;45.508;12.232;2023-04-07T10:02:50;16.83;;;10.23;;
14007;SDS011;61651;45.508;12.232;2023-04-07T10:05:53;16.20;;;11.43;;
14007;SDS011;61651;45.508;12.232;2023-04-07T10:08:56;15.82;;;11.02;;
14007;SDS011;61651;45.508;12.232;2023-04-07T10:11:58;14.55;;;10.32;;
14007;SDS011;61651;45.508;12.232;2023-04-07T10:15:00;14.93;;;11.40;;
14007;SDS011;61651;45.508;12.232;2023-04-07T10:18:03;15.68;;;11.50;;
14007;SDS011;61651;45.508;12.232;2023-04-07T10:21:08;17.63;;;12.00;;
14007;SDS011;61651;45.508;12.232;2023-04-07T10:24:17;14.45;;;10.95;;
14007;SDS011;61651;45.508;12.232;2023-04-07T10:27:30;15.23;;;11.02;;
14007;SDS011;61651;45.508;12.232;2023-04-07T10:30:34;18.25;;;10.93;;
14007;SDS011;61651;45.508;12.232;2023-04-07T10:33:47;14.35;;;11.00;;
14007;SDS011;61651;45.508;12.232;2023-04-07T10:37:10;12.80;;;10.20;;
14007;SDS011;61651;45.508;12.232;2023-04-07T10:43:38;13.52;;;11.27;;
14007;SDS011;61651;45.508;12.232;2023-04-07T10:50:13;13.93;;;11.13;;
14007;SDS011;61651;45.508;12.232;2023-04-07T10:53:17;15.38;;;10.40;;
14007;SDS011;61651;45.508;12.232;2023-04-07T10:56:21;10.88;;;9.07;;
14007;SDS011;61651;45.508;12.232;2023-04-07T10:59:24;15.13;;;9.68;;
14007;SDS011;61651;45.508;12.232;2023-04-07T11:02:32;11.82;;;8.77;;
14007;SDS011;61651;45.508;12.232;2023-04-07T11:05:35;12.48;;;8.60;;
14007;SDS011;61651;45.508;12.232;2023-04-07T11:08:38;11.52;;;9.10;;
14007;SDS011;61651;45.508;12.232;2023-04-07T11:11:42;11.10;;;8.82;;
14007;SDS011;61651;45.508;12.232;2023-04-07T11:14:46;13.57;;;7.50;;
14007;SDS011;61651;45.508;12.232;2023-04-07T11:21:09;11.55;;;7.22;;
14007;SDS011;61651;45.508;12.232;2023-04-07T11:27:38;11.23;;;8.93;;
14007;SDS011;61651;45.508;12.232;2023-04-07T11:30:49;9.65;;;7.18;;
14007;SDS011;61651;45.508;12.232;2023-04-07T11:33:53;8.68;;;6.93;;
14007;SDS011;61651;45.508;12.232;2023-04-07T11:36:56;10.52;;;7.80;;
14007;SDS011;61651;45.508;12.232;2023-04-07T11:40:01;8.88;;;7.13;;
14007;SDS011;61651;45.508;12.232;2023-04-07T11:43:15;12.05;;;7.20;;
14007;SDS011;61651;45.508;12.232;2023-04-07T11:46:18;7.75;;;6.68;;
14007;SDS011;61651;45.508;12.232;2023-04-07T11:49:20;7.57;;;6.03;;
14007;SDS011;61651;45.508;12.232;2023-04-07T11:52:24;9.75;;;6.70;;
14007;SDS011;61651;45.508;12.232;2023-04-07T11:55:26;10.97;;;8.83;;
14007;SDS011;61651;45.508;12.232;2023-04-07T11:58:30;9.60;;;6.70;;
14007;SDS011;61651;45.508;12.232;2023-04-07T12:01:37;10.70;;;6.40;;
14007;SDS011;61651;45.508;12.232;2023-04-07T12:04:54;6.55;;;5.20;;
14007;SDS011;61651;45.508;12.232;2023-04-07T12:07:57;8.52;;;5.38;;
14007;SDS011;61651;45.508;12.232;2023-04-07T12:11:01;7.20;;;5.40;;
14007;SDS011;61651;45.508;12.232;2023-04-07T12:14:06;9.10;;;5.63;;
14007;SDS011;61651;45.508;12.232;2023-04-07T12:17:18;7.80;;;5.57;;
14007;SDS011;61651;45.508;12.232;2023-04-07T12:20:20;18.30;;;8.43;;
14007;SDS011;61651;45.508;12.232;2023-04-07T12:23:22;7.47;;;6.25;;
14007;SDS011;61651;45.508;12.232;2023-04-07T12:26:24;8.20;;;6.55;;
14007;SDS011;61651;45.508;12.232;2023-04-07T12:29:28;15.98;;;8.25;;
14007;SDS011;61651;45.508;12.232;2023-04-07T12:32:30;12.13;;;8.10;;
14007;SDS011;61651;45.508;12.232;2023-04-07T12:35:33;9.98;;;8.20;;
14007;SDS011;61651;45.508;12.232;2023-04-07T12:38:34;9.82;;;8.82;;
14007;SDS011;61651;45.508;12.232;2023-04-07T12:41:36;9.35;;;7.57;;
14007;SDS011;61651;45.508;12.232;2023-04-07T12:44:40;10.07;;;7.40;;
14007;SDS011;61651;45.508;12.232;2023-04-07T12:47:43;17.38;;;7.88;;
14007;SDS011;61651;45.508;12.232;2023-04-07T12:50:45;13.68;;;7.53;;
14007;SDS011;61651;45.508;12.232;2023-04-07T12:53:48;9.93;;;6.78;;
14007;SDS011;61651;45.508;12.232;2023-04-07T12:56:50;11.25;;;8.75;;
14007;SDS011;61651;45.508;12.232;2023-04-07T12:59:53;9.10;;;7.38;;
14007;SDS011;61651;45.508;12.232;2023-04-07T13:02:56;13.90;;;9.10;;
14007;SDS011;61651;45.508;12.232;2023-04-07T13:05:57;8.85;;;6.90;;
14007;SDS011;61651;45.508;12.232;2023-04-07T13:09:00;6.70;;;6.00;;
14007;SDS011;61651;45.508;12.232;2023-04-07T13:12:02;8.52;;;7.07;;
14007;SDS011;61651;45.508;12.232;2023-04-07T13:15:07;8.00;;;6.22;;
14007;SDS011;61651;45.508;12.232;2023-04-07T13:18:09;8.15;;;6.13;;
14007;SDS011;61651;45.508;12.232;2023-04-07T13:21:11;7.03;;;6.10;;
14007;SDS011;61651;45.508;12.232;2023-04-07T13:24:13;7.03;;;5.03;;
14007;SDS011;61651;45.508;12.232;2023-04-07T13:27:15;6.90;;;5.22;;
14007;SDS011;61651;45.508;12.232;2023-04-07T13:30:18;7.65;;;5.22;;
14007;SDS011;61651;45.508;12.232;2023-04-07T13:33:20;5.50;;;4.13;;
14007;SDS011;61651;45.508;12.232;2023-04-07T13:36:23;5.95;;;4.70;;
14007;SDS011;61651;45.508;12.232;2023-04-07T13:39:26;5.85;;;4.57;;
14007;SDS011;61651;45.508;12.232;2023-04-07T13:42:28;7.55;;;4.72;;
14007;SDS011;61651;45.508;12.232;2023-04-07T13:45:32;6.72;;;4.55;;
14007;SDS011;61651;45.508;12.232;2023-04-07T13:48:36;5.05;;;4.05;;
14007;SDS011;61651;45.508;12.232;2023-04-07T13:51:38;8.23;;;4.90;;
14007;SDS011;61651;45.508;12.232;2023-04-07T13:54:40;8.07;;;5.53;;
14007;SDS011;61651;45.508;12.232;2023-04-07T13:57:43;8.98;;;5.38;;
14007;SDS011;61651;45.508;12.232;2023-04-07T14:00:46;9.45;;;5.82;;
14007;SDS011;61651;45.508;12.232;2023-04-07T14:03:48;8.50;;;6.97;;
14007;SDS011;61651;45.508;12.232;2023-04-07T14:06:50;9.38;;;5.90;;
14007;SDS011;61651;45.508;12.232;2023-04-07T14:09:52;7.50;;;6.05;;
14007;SDS011;61651;45.508;12.232;2023-04-07T14:12:54;9.43;;;6.13;;
14007;SDS011;61651;45.508;12.232;2023-04-07T14:15:58;10.20;;;6.82;;
14007;SDS011;61651;45.508;12.232;2023-04-07T14:19:00;7.80;;;5.20;;
14007;SDS011;61651;45.508;12.232;2023-04-07T14:22:02;9.25;;;6.72;;
14007;SDS011;61651;45.508;12.232;2023-04-07T14:25:05;8.05;;;6.53;;
14007;SDS011;61651;45.508;12.232;2023-04-07T14:28:07;9.73;;;6.63;;
14007;SDS011;61651;45.508;12.232;2023-04-07T14:31:14;9.27;;;6.15;;
14007;SDS011;61651;45.508;12.232;2023-04-07T14:34:16;9.02;;;6.75;;
14007;SDS011;61651;45.508;12.232;2023-04-07T14:37:19;9.07;;;6.25;;
14007;SDS011;61651;45.508;12.232;2023-04-07T14:40:25;8.73;;;6.75;;
14007;SDS011;61651;45.508;12.232;2023-04-07T14:43:27;9.25;;;6.43;;
14007;SDS011;61651;45.508;12.232;2023-04-07T14:46:30;8.48;;;5.97;;
14007;SDS011;61651;45.508;12.232;2023-04-07T14:49:32;7.57;;;6.30;;
14007;SDS011;61651;45.508;12.232;2023-04-07T14:52:34;8.00;;;5.50;;
14007;SDS011;61651;45.508;12.232;2023-04-07T14:55:36;8.40;;;5.72;;
14007;SDS011;61651;45.508;12.232;2023-04-07T14:58:40;8.85;;;5.70;;
14007;SDS011;61651;45.508;12.232;2023-04-07T15:01:43;8.48;;;5.25;;
14007;SDS011;61651;45.508;12.232;2023-04-07T15:04:45;7.60;;;4.97;;
14007;SDS011;61651;45.508;12.232;2023-04-07T15:07:47;6.10;;;4.15;;
14007;SDS011;61651;45.508;12.232;2023-04-07T15:10:51;4.68;;;4.20;;
14007;SDS011;61651;45.508;12.232;2023-04-07T15:13:53;6.13;;;4.50;;
14007;SDS011;61651;45.508;12.232;2023-04-07T15:16:56;5.22;;;4.38;;
14007;SDS011;61651;45.508;12.232;2023-04-07T15:19:58;5.47;;;4.53;;
14007;SDS011;61651;45.508;12.232;2023-04-07T15:23:00;5.15;;;4.65;;
14007;SDS011;61651;45.508;12.232;2023-04-07T15:26:02;5.88;;;4.35;;
14007;SDS011;61651;45.508;12.232;2023-04-07T15:29:04;8.30;;;5.07;;
14007;SDS011;61651;45.508;12.232;2023-04-07T15:32:08;5.72;;;4.00;;
14007;SDS011;61651;45.508;12.232;2023-04-07T15:35:10;5.60;;;4.50;;
14007;SDS011;61651;45.508;12.232;2023-04-07T15:38:12;4.63;;;3.55;;
14007;SDS011;61651;45.508;12.232;2023-04-07T15:41:14;8.45;;;4.75;;
14007;SDS011;61651;45.508;12.232;2023-04-07T15:44:17;7.63;;;5.00;;
14007;SDS011;61651;45.508;12.232;2023-04-07T15:47:20;8.25;;;4.93;;
14007;SDS011;61651;45.508;12.232;2023-04-07T15:50:22;6.05;;;4.68;;
14007;SDS011;61651;45.508;12.232;2023-04-07T15:53:24;5.57;;;4.68;;
14007;SDS011;61651;45.508;12.232;2023-04-07T15:56:26;4.68;;;4.15;;
14007;SDS011;61651;45.508;12.232;2023-04-07T15:59:28;8.23;;;5.50;;
14007;SDS011;61651;45.508;12.232;2023-04-07T16:02:31;5.15;;;4.57;;
14007;SDS011;61651;45.508;12.232;2023-04-07T16:05:33;5.93;;;4.53;;
14007;SDS011;61651;45.508;12.232;2023-04-07T16:08:35;5.90;;;5.07;;
14007;SDS011;61651;45.508;12.232;2023-04-07T16:11:37;6.55;;;5.63;;
14007;SDS011;61651;45.508;12.232;2023-04-07T16:14:39;10.85;;;5.13;;
14007;SDS011;61651;45.508;12.232;2023-04-07T16:17:44;9.00;;;5.55;;
14007;SDS011;61651;45.508;12.232;2023-04-07T16:20:47;5.88;;;5.15;;
14007;SDS011;61651;45.508;12.232;2023-04-07T16:23:49;6.43;;;5.15;;
14007;SDS011;61651;45.508;12.232;2023-04-07T16:26:51;8.05;;;5.38;;
14007;SDS011;61651;45.508;12.232;2023-04-07T16:29:54;5.05;;;4.55;;
14007;SDS011;61651;45.508;12.232;2023-04-07T16:32:58;6.57;;;5.05;;
14007;SDS011;61651;45.508;12.232;2023-04-07T16:36:00;5.78;;;4.38;;
14007;SDS011;61651;45.508;12.232;2023-04-07T16:39:02;7.40;;;5.03;;
14007;SDS011;61651;45.508;12.232;2023-04-07T16:42:04;5.60;;;4.60;;
14007;SDS011;61651;45.508;12.232;2023-04-07T16:45:07;7.20;;;5.35;;
14007;SDS011;61651;45.508;12.232;2023-04-07T16:48:10;6.00;;;5.07;;
14007;SDS011;61651;45.508;12.232;2023-04-07T16:51:14;4.88;;;4.47;;
14007;SDS011;61651;45.508;12.232;2023-04-07T16:54:17;6.25;;;4.90;;
14007;SDS011;61651;45.508;12.232;2023-04-07T16:57:19;7.35;;;5.10;;
14007;SDS011;61651;45.508;12.232;2023-04-07T17:00:21;6.20;;;4.95;;
14007;SDS011;61651;45.508;12.232;2023-04-07T17:03:24;6.00;;;5.40;;
14007;SDS011;61651;45.508;12.232;2023-04-07T17:06:26;6.97;;;5.43;;
14007;SDS011;61651;45.508;12.232;2023-04-07T17:09:28;5.63;;;5.13;;
14007;SDS011;61651;45.508;12.232;2023-04-07T17:12:30;6.68;;;5.97;;
14007;SDS011;61651;45.508;12.232;2023-04-07T17:15:34;6.47;;;5.55;;
14007;SDS011;61651;45.508;12.232;2023-04-07T17:18:38;7.75;;;5.57;;
14007;SDS011;61651;45.508;12.232;2023-04-07T17:21:40;6.82;;;5.35;;
14007;SDS011;61651;45.508;12.232;2023-04-07T17:24:42;5.38;;;4.88;;
14007;SDS011;61651;45.508;12.232;2023-04-07T17:27:44;5.47;;;4.90;;
14007;SDS011;61651;45.508;12.232;2023-04-07T17:30:47;5.78;;;5.28;;
14007;SDS011;61651;45.508;12.232;2023-04-07T17:33:50;5.43;;;4.93;;
14007;SDS011;61651;45.508;12.232;2023-04-07T17:36:52;7.55;;;5.78;;
14007;SDS011;61651;45.508;12.232;2023-04-07T17:39:54;7.80;;;5.00;;
14007;SDS011;61651;45.508;12.232;2023-04-07T17:42:57;9.07;;;5.60;;
14007;SDS011;61651;45.508;12.232;2023-04-07T17:45:59;5.95;;;5.45;;
14007;SDS011;61651;45.508;12.232;2023-04-07T17:49:04;6.28;;;4.78;;
14007;SDS011;61651;45.508;12.232;2023-04-07T17:52:05;5.57;;;4.80;;
14007;SDS011;61651;45.508;12.232;2023-04-07T17:55:08;6.68;;;5.22;;
14007;SDS011;61651;45.508;12.232;2023-04-07T17:58:11;6.75;;;5.25;;
14007;SDS011;61651;45.508;12.232;2023-04-07T18:01:13;5.43;;;4.65;;